SWA402 MBPV-KMCO
Flight info
| Callsign | SWA402 |
|---|---|
| Flight time | N/A |
| Altitude | 38000 |
| Route | SUMAC DCT OCTAL MUNGI1 |
| Aircraft | B738/M-SDE2E3FGHIRWXY/LB1 |
Departure
| Time | 2026-05-04 02:08 |
|---|---|
| Airport | Providenciales International Airport (MBPV) |
Arrival
| Time | N/A |
|---|---|
| Airport | Orlando International Airport (KMCO) |
| Time | Latitude | Longitude | Altitude | Speed | Heading |
|---|---|---|---|---|---|
| 2026-05-04 01:54 | 21.77575 | -72.27138 | 11 ft | 0 kts | 85° |
| 2026-05-04 02:01 | 21.77574 | -72.27149 | 14 ft | 3 kts | 67° |
| 2026-05-04 02:01 | 21.77570 | -72.27158 | 14 ft | 3 kts | 352° |
| 2026-05-04 02:01 | 21.77553 | -72.27157 | 13 ft | 2 kts | 27° |
| 2026-05-04 02:02 | 21.77545 | -72.27163 | 14 ft | 2 kts | 31° |
| 2026-05-04 02:02 | 21.77531 | -72.27169 | 14 ft | 3 kts | 338° |
| 2026-05-04 02:02 | 21.77519 | -72.27158 | 13 ft | 3 kts | 291° |
| 2026-05-04 02:02 | 21.77513 | -72.27137 | 12 ft | 3 kts | 277° |
| 2026-05-04 02:03 | 21.77512 | -72.27124 | 11 ft | 1 kts | 272° |
| 2026-05-04 02:03 | 21.77512 | -72.27121 | 11 ft | 0 kts | 272° |
| 2026-05-04 02:05 | 21.77512 | -72.27123 | 11 ft | 1 kts | 272° |
| 2026-05-04 02:05 | 21.77513 | -72.27150 | 13 ft | 6 kts | 272° |
| 2026-05-04 02:05 | 21.77482 | -72.27197 | 12 ft | 11 kts | 194° |
| 2026-05-04 02:05 | 21.77397 | -72.27220 | 11 ft | 15 kts | 234° |
| 2026-05-04 02:06 | 21.77398 | -72.27340 | 12 ft | 18 kts | 275° |
| 2026-05-04 02:06 | 21.77405 | -72.27488 | 13 ft | 22 kts | 272° |
| 2026-05-04 02:06 | 21.77413 | -72.27665 | 14 ft | 25 kts | 273° |
| 2026-05-04 02:06 | 21.77424 | -72.27867 | 15 ft | 28 kts | 273° |
| 2026-05-04 02:07 | 21.77434 | -72.28055 | 15 ft | 22 kts | 275° |
| 2026-05-04 02:07 | 21.77468 | -72.28162 | 16 ft | 13 kts | 312° |
| 2026-05-04 02:07 | 21.77432 | -72.28191 | 16 ft | 13 kts | 109° |
| 2026-05-04 02:07 | 21.77434 | -72.28098 | 15 ft | 12 kts | 94° |
| 2026-05-04 02:08 | 21.77421 | -72.27808 | 15 ft | 76 kts | 94° |
| 2026-05-04 02:08 | 21.77381 | -72.26979 | 11 ft | 143 kts | 93° |
| 2026-05-04 02:08 | 21.77325 | -72.25736 | 297 ft | 171 kts | 92° |
| 2026-05-04 02:08 | 21.77263 | -72.24539 | 1412 ft | 155 kts | 94° |
| 2026-05-04 02:09 | 21.77191 | -72.23337 | 2108 ft | 168 kts | 93° |
| 2026-05-04 02:09 | 21.77110 | -72.21962 | 2445 ft | 200 kts | 94° |
| 2026-05-04 02:09 | 21.77014 | -72.20385 | 2659 ft | 227 kts | 93° |
| 2026-05-04 02:09 | 21.77230 | -72.18676 | 3221 ft | 239 kts | 65° |
| 2026-05-04 02:10 | 21.78323 | -72.17336 | 3939 ft | 246 kts | 34° |
| 2026-05-04 02:10 | 21.80014 | -72.16728 | 4424 ft | 268 kts | 6° |
| 2026-05-04 02:10 | 21.81904 | -72.16775 | 5220 ft | 275 kts | 355° |
| 2026-05-04 02:10 | 21.83816 | -72.17009 | 6061 ft | 281 kts | 353° |
| 2026-05-04 02:11 | 21.85777 | -72.17272 | 6924 ft | 283 kts | 353° |
| 2026-05-04 02:11 | 21.87747 | -72.17524 | 7734 ft | 288 kts | 353° |
| 2026-05-04 02:11 | 21.89761 | -72.17764 | 8488 ft | 294 kts | 353° |
| 2026-05-04 02:11 | 21.91798 | -72.17992 | 9358 ft | 296 kts | 353° |
| 2026-05-04 02:12 | 21.93864 | -72.18216 | 10129 ft | 302 kts | 353° |
| 2026-05-04 02:12 | 21.96007 | -72.18445 | 10522 ft | 321 kts | 353° |
| 2026-05-04 02:12 | 21.98289 | -72.18869 | 10671 ft | 345 kts | 339° |
| 2026-05-04 02:12 | 22.00343 | -72.20297 | 10854 ft | 363 kts | 311° |
| 2026-05-04 02:13 | 22.01770 | -72.22577 | 11287 ft | 371 kts | 298° |
| 2026-05-04 02:13 | 22.03028 | -72.25026 | 11906 ft | 375 kts | 297° |
| 2026-05-04 02:13 | 22.04284 | -72.27497 | 12595 ft | 377 kts | 298° |
| 2026-05-04 02:13 | 22.05556 | -72.29982 | 13271 ft | 380 kts | 298° |
| 2026-05-04 02:14 | 22.06848 | -72.32482 | 13893 ft | 384 kts | 299° |
| 2026-05-04 02:14 | 22.08165 | -72.35007 | 14411 ft | 389 kts | 298° |
| 2026-05-04 02:14 | 22.09497 | -72.37552 | 14987 ft | 391 kts | 299° |
| 2026-05-04 02:14 | 22.10839 | -72.40111 | 15539 ft | 394 kts | 299° |
| 2026-05-04 02:15 | 22.12177 | -72.42664 | 16087 ft | 397 kts | 298° |
| 2026-05-04 02:15 | 22.13555 | -72.45250 | 16629 ft | 400 kts | 301° |
| 2026-05-04 02:15 | 22.15109 | -72.47756 | 17193 ft | 402 kts | 304° |
| 2026-05-04 02:15 | 22.16769 | -72.50206 | 17701 ft | 406 kts | 306° |
| 2026-05-04 02:16 | 22.18477 | -72.52656 | 18205 ft | 409 kts | 306° |
| 2026-05-04 02:16 | 22.20194 | -72.55114 | 18670 ft | 411 kts | 306° |
| 2026-05-04 02:16 | 22.21915 | -72.57598 | 19083 ft | 415 kts | 306° |
| 2026-05-04 02:16 | 22.23637 | -72.60107 | 19489 ft | 418 kts | 305° |
| 2026-05-04 02:17 | 22.25364 | -72.62644 | 19920 ft | 420 kts | 304° |
| 2026-05-04 02:17 | 22.27093 | -72.65197 | 20339 ft | 422 kts | 304° |
| 2026-05-04 02:17 | 22.28826 | -72.67767 | 20742 ft | 425 kts | 304° |
| 2026-05-04 02:17 | 22.30570 | -72.70358 | 21135 ft | 428 kts | 304° |
| 2026-05-04 02:18 | 22.32322 | -72.72965 | 21521 ft | 430 kts | 304° |
| 2026-05-04 02:18 | 22.34084 | -72.75588 | 21904 ft | 433 kts | 303° |
| 2026-05-04 02:18 | 22.35831 | -72.78191 | 22270 ft | 435 kts | 303° |
| 2026-05-04 02:18 | 22.37614 | -72.80848 | 22636 ft | 438 kts | 303° |
| 2026-05-04 02:19 | 22.39407 | -72.83521 | 22988 ft | 440 kts | 303° |
| 2026-05-04 02:19 | 22.41211 | -72.86211 | 23341 ft | 442 kts | 303° |
| 2026-05-04 02:19 | 22.43022 | -72.88914 | 23676 ft | 445 kts | 303° |
| 2026-05-04 02:19 | 22.44843 | -72.91632 | 23955 ft | 447 kts | 303° |
| 2026-05-04 02:20 | 22.46665 | -72.94353 | 24257 ft | 448 kts | 303° |
| 2026-05-04 02:20 | 22.48497 | -72.97089 | 24559 ft | 449 kts | 302° |
| 2026-05-04 02:20 | 22.50331 | -72.99830 | 24863 ft | 450 kts | 302° |
| 2026-05-04 02:20 | 22.52168 | -73.02578 | 25187 ft | 451 kts | 302° |
| 2026-05-04 02:21 | 22.53978 | -73.05287 | 25536 ft | 450 kts | 302° |
| 2026-05-04 02:21 | 22.55818 | -73.08042 | 25806 ft | 452 kts | 302° |
| 2026-05-04 02:21 | 22.57668 | -73.10813 | 26053 ft | 454 kts | 302° |
| 2026-05-04 02:21 | 22.59519 | -73.13589 | 26304 ft | 456 kts | 302° |
| 2026-05-04 02:22 | 22.61379 | -73.16378 | 26570 ft | 458 kts | 302° |
| 2026-05-04 02:22 | 22.63245 | -73.19178 | 26834 ft | 459 kts | 302° |
| 2026-05-04 02:22 | 22.65113 | -73.21983 | 27090 ft | 460 kts | 302° |
| 2026-05-04 02:22 | 22.66990 | -73.24802 | 27325 ft | 462 kts | 302° |
| 2026-05-04 02:23 | 22.68872 | -73.27631 | 27580 ft | 463 kts | 302° |
| 2026-05-04 02:23 | 22.70760 | -73.30471 | 27817 ft | 465 kts | 302° |
| 2026-05-04 02:23 | 22.72658 | -73.33325 | 28068 ft | 466 kts | 302° |
| 2026-05-04 02:23 | 22.74526 | -73.36137 | 28295 ft | 467 kts | 302° |
| 2026-05-04 02:24 | 22.76425 | -73.38999 | 28509 ft | 469 kts | 302° |
| 2026-05-04 02:24 | 22.78340 | -73.41883 | 28713 ft | 471 kts | 302° |
| 2026-05-04 02:24 | 22.80252 | -73.44767 | 28985 ft | 471 kts | 302° |
| 2026-05-04 02:24 | 22.82158 | -73.47641 | 29342 ft | 469 kts | 302° |
| 2026-05-04 02:25 | 22.84061 | -73.50511 | 29725 ft | 467 kts | 301° |
| 2026-05-04 02:25 | 22.85956 | -73.53372 | 30085 ft | 466 kts | 301° |
| 2026-05-04 02:25 | 22.87843 | -73.56223 | 30364 ft | 465 kts | 301° |
| 2026-05-04 02:25 | 22.89728 | -73.59072 | 30728 ft | 463 kts | 301° |
| 2026-05-04 02:26 | 22.91594 | -73.61894 | 31133 ft | 459 kts | 301° |
| 2026-05-04 02:26 | 22.93436 | -73.64681 | 31503 ft | 457 kts | 301° |
| 2026-05-04 02:26 | 22.95297 | -73.67498 | 31857 ft | 455 kts | 301° |
| 2026-05-04 02:26 | 22.97135 | -73.70283 | 32219 ft | 453 kts | 301° |
| 2026-05-04 02:27 | 22.98962 | -73.73054 | 32547 ft | 452 kts | 301° |
| 2026-05-04 02:27 | 23.00790 | -73.75828 | 32875 ft | 451 kts | 301° |
| 2026-05-04 02:27 | 23.02587 | -73.78555 | 33220 ft | 449 kts | 301° |
| 2026-05-04 02:27 | 23.04399 | -73.81307 | 33581 ft | 447 kts | 301° |
| 2026-05-04 02:28 | 23.06207 | -73.84054 | 33933 ft | 446 kts | 301° |
| 2026-05-04 02:28 | 23.08007 | -73.86790 | 34242 ft | 444 kts | 301° |
| 2026-05-04 02:28 | 23.09798 | -73.89514 | 34565 ft | 442 kts | 301° |
| 2026-05-04 02:28 | 23.11582 | -73.92228 | 34928 ft | 439 kts | 301° |
| 2026-05-04 02:29 | 23.13349 | -73.94916 | 35288 ft | 436 kts | 301° |
| 2026-05-04 02:29 | 23.15105 | -73.97592 | 35614 ft | 433 kts | 301° |
| 2026-05-04 02:29 | 23.16853 | -74.00256 | 35914 ft | 432 kts | 301° |
| 2026-05-04 02:29 | 23.18591 | -74.02906 | 36223 ft | 429 kts | 301° |
| 2026-05-04 02:30 | 23.20318 | -74.05541 | 36549 ft | 427 kts | 301° |
| 2026-05-04 02:30 | 23.22018 | -74.08136 | 36856 ft | 425 kts | 301° |
| 2026-05-04 02:30 | 23.23729 | -74.10749 | 37137 ft | 423 kts | 301° |
| 2026-05-04 02:30 | 23.25434 | -74.13355 | 37397 ft | 423 kts | 301° |
| 2026-05-04 02:31 | 23.27138 | -74.15963 | 37557 ft | 424 kts | 301° |
| 2026-05-04 02:31 | 23.28846 | -74.18576 | 37764 ft | 424 kts | 301° |
| 2026-05-04 02:31 | 23.30550 | -74.21184 | 38042 ft | 422 kts | 301° |
| 2026-05-04 02:31 | 23.32253 | -74.23793 | 38038 ft | 425 kts | 301° |
| 2026-05-04 02:32 | 23.35672 | -74.29032 | 38059 ft | 422 kts | 301° |
| 2026-05-04 02:32 | 23.39062 | -74.34228 | 38059 ft | 419 kts | 301° |
| 2026-05-04 02:33 | 23.42425 | -74.39392 | 38055 ft | 417 kts | 301° |
| 2026-05-04 02:33 | 23.45745 | -74.44494 | 38062 ft | 415 kts | 301° |
| 2026-05-04 02:34 | 23.49085 | -74.49634 | 38065 ft | 415 kts | 301° |
| 2026-05-04 02:34 | 23.52425 | -74.54779 | 38066 ft | 417 kts | 301° |
| 2026-05-04 02:35 | 23.55785 | -74.59960 | 38067 ft | 419 kts | 301° |